Time;durP1;ratioP1;P1;durP2;ratioP2;P2;SDS_P1;SDS_P2;PMS_P1;PMS_P2;Temp;Humidity;BMP_temperature;BMP_pressure;BME280_temperature;BME280_humidity;BME280_pressure;Samples;Min_cycle;Max_cycle;Signal;HPM_P1;HPM_P2
2023/11/05 00:01:33;;;;;;;0.43;0.40;;;;;;;21.38;37.44;96442.75;4499067;28;20664;-64
2023/11/05 00:03:44;;;;;;;0.60;0.30;;;;;;;21.38;37.58;96445.59;4498376;28;20107;-64
2023/11/05 00:05:54;;;;;;;0.65;0.30;;;;;;;21.41;37.60;96452.47;4498325;28;20070;-64
2023/11/05 00:08:05;;;;;;;0.57;0.38;;;;;;;21.39;37.98;96450.06;4496375;28;20069;-64
2023/11/05 00:10:15;;;;;;;0.40;0.35;;;;;;;21.39;37.61;96441.47;4498447;28;20488;-64
2023/11/05 00:12:26;;;;;;;0.80;0.47;;;;;;;21.40;37.81;96436.53;4503614;28;20029;-64
2023/11/05 00:14:36;;;;;;;0.63;0.30;;;;;;;21.39;37.53;96435.72;4500363;28;20069;-64
2023/11/05 00:16:47;;;;;;;0.80;0.30;;;;;;;21.41;37.39;96449.59;4499649;28;20080;-64
2023/11/05 00:18:57;;;;;;;0.40;0.30;;;;;;;21.39;37.83;96449.28;4499916;28;20474;-65
2023/11/05 00:21:08;;;;;;;0.35;0.30;;;;;;;21.40;37.63;96445.94;4498632;28;20479;-64
2023/11/05 00:23:18;;;;;;;0.65;0.40;;;;;;;21.39;37.54;96450.06;4500554;28;20030;-64
2023/11/05 00:25:28;;;;;;;0.38;0.28;;;;;;;21.35;37.79;96440.81;4498312;28;20052;-64
2023/11/05 00:27:39;;;;;;;0.32;0.32;;;;;;;21.40;37.98;96454.53;4498948;28;20064;-64
2023/11/05 00:29:49;;;;;;;0.63;0.45;;;;;;;21.38;37.75;96439.06;4497613;28;20120;-64
2023/11/05 00:32:00;;;;;;;0.82;0.40;;;;;;;21.39;37.61;96450.06;4502131;28;20427;-64
2023/11/05 00:34:10;;;;;;;0.55;0.50;;;;;;;21.41;37.80;96449.59;4498588;28;20037;-64
2023/11/05 00:36:21;;;;;;;0.30;0.30;;;;;;;21.39;37.73;96452.94;4498504;28;20065;-64
2023/11/05 00:38:31;;;;;;;0.45;0.40;;;;;;;21.38;37.75;96450.53;4503448;28;20113;-64
2023/11/05 00:40:42;;;;;;;0.32;0.30;;;;;;;21.32;37.85;96441.75;4498020;28;20113;-64
2023/11/05 00:42:52;;;;;;;0.30;0.30;;;;;;;21.40;37.79;96451.69;4498518;28;20018;-64
2023/11/05 00:45:03;;;;;;;0.93;0.40;;;;;;;21.40;37.98;96453.75;4497286;28;20096;-64
2023/11/05 00:47:14;;;;;;;0.80;0.40;;;;;;;21.39;37.89;96446.41;4498239;28;20042;-64
2023/11/05 00:49:24;;;;;;;0.77;0.50;;;;;;;21.39;38.04;96452.16;4496883;28;20073;-64
2023/11/05 00:51:35;;;;;;;0.90;0.45;;;;;;;21.36;38.10;96448.13;4499557;28;20065;-64
2023/11/05 00:53:45;;;;;;;0.90;0.45;;;;;;;21.36;38.09;96441.63;4507882;28;20559;-64
2023/11/05 00:55:55;;;;;;;0.65;0.40;;;;;;;21.35;37.73;96446.56;4496871;28;20048;-64
2023/11/05 00:58:06;;;;;;;0.70;0.47;;;;;;;21.38;37.60;96447.66;4494859;28;20029;-64
2023/11/05 01:00:17;;;;;;;0.40;0.30;;;;;;;21.33;37.99;96437.63;4496667;28;20521;-64
2023/11/05 01:02:27;;;;;;;1.00;0.50;;;;;;;21.39;37.80;96440.69;4497905;28;20042;-64
2023/11/05 01:04:38;;;;;;;0.77;0.50;;;;;;;21.38;37.63;96433.31;4499762;28;20483;-64
2023/11/05 01:06:48;;;;;;;0.50;0.40;;;;;;;21.35;37.99;96422.81;4496931;28;20074;-64
2023/11/05 01:08:58;;;;;;;0.40;0.30;;;;;;;21.39;38.19;96427.13;4495002;28;20121;-64
2023/11/05 01:11:09;;;;;;;0.30;0.30;;;;;;;21.36;38.15;96430.94;4494505;28;20034;-64
2023/11/05 01:13:19;;;;;;;1.27;0.40;;;;;;;21.39;38.03;96429.22;4497306;28;20428;-64
2023/11/05 01:15:30;;;;;;;1.10;0.60;;;;;;;21.37;37.54;96421.06;4499528;28;20050;-64
2023/11/05 01:17:41;;;;;;;0.63;0.40;;;;;;;21.38;37.94;96422.66;4498831;28;20045;-64
2023/11/05 01:19:51;;;;;;;0.88;0.45;;;;;;;21.37;37.44;96415.34;4497009;28;20034;-64
2023/11/05 01:22:02;;;;;;;0.60;0.40;;;;;;;21.35;37.38;96402.72;4496415;28;20030;-64
2023/11/05 01:24:12;;;;;;;0.77;0.30;;;;;;;21.38;37.62;96416.94;4497038;28;20084;-64
2023/11/05 01:26:22;;;;;;;0.75;0.38;;;;;;;21.37;37.87;96409.59;4495937;28;20038;-64
2023/11/05 01:28:33;;;;;;;1.40;0.40;;;;;;;21.34;37.76;96404.00;4489515;28;20610;-64
2023/11/05 01:30:43;;;;;;;0.60;0.50;;;;;;;21.36;37.16;96410.84;4495971;28;20532;-64
2023/11/05 01:32:54;;;;;;;1.08;0.63;;;;;;;21.30;37.55;96395.53;4497049;28;20048;-64
2023/11/05 01:35:05;;;;;;;0.85;0.40;;;;;;;21.38;37.05;96414.06;4497833;28;20025;-64
2023/11/05 01:37:15;;;;;;;1.10;0.50;;;;;;;21.34;37.03;96401.94;4500326;28;20553;-64
2023/11/05 01:39:26;;;;;;;1.10;0.50;;;;;;;21.36;37.17;96398.59;4497757;28;20034;-64
2023/11/05 01:41:36;;;;;;;0.70;0.50;;;;;;;21.36;36.98;96399.38;4497672;28;20050;-64
2023/11/05 01:43:46;;;;;;;0.82;0.40;;;;;;;21.37;36.99;96392.41;4498651;28;20040;-64
2023/11/05 01:45:57;;;;;;;1.10;0.40;;;;;;;21.37;37.34;96385.84;4496430;28;20483;-64
2023/11/05 01:48:08;;;;;;;0.65;0.40;;;;;;;21.35;36.66;96383.47;4496808;28;20037;-64
2023/11/05 01:50:19;;;;;;;0.73;0.40;;;;;;;21.36;36.75;96390.78;4496652;28;20065;-64
2023/11/05 01:52:29;;;;;;;0.70;0.30;;;;;;;21.35;36.56;96380.59;4495284;28;20132;-64
2023/11/05 01:54:41;;;;;;;0.55;0.30;;;;;;;21.36;36.51;96370.69;4498746;28;20105;-64
2023/11/05 01:56:52;;;;;;;1.55;0.50;;;;;;;21.36;36.58;96367.84;4496974;28;20114;-64
2023/11/05 01:59:03;;;;;;;0.52;0.43;;;;;;;21.36;36.72;96367.06;4495514;28;20044;-64
2023/11/05 02:01:15;;;;;;;0.57;0.35;;;;;;;21.33;36.81;96363.03;4495741;28;20530;-64
2023/11/05 02:03:26;;;;;;;0.98;0.47;;;;;;;21.37;36.81;96372.31;4495536;28;20688;-64
2023/11/05 02:05:36;;;;;;;1.45;0.60;;;;;;;21.35;36.44;96363.38;4484866;28;20076;-64
2023/11/05 02:07:47;;;;;;;0.85;0.55;;;;;;;21.36;36.63;96355.59;4503870;28;20034;-64
2023/11/05 02:09:57;;;;;;;1.52;0.70;;;;;;;21.36;36.49;96359.22;4495321;28;20026;-64
2023/11/05 02:12:08;;;;;;;1.40;0.60;;;;;;;21.31;36.45;96342.63;4494965;28;20038;-64
2023/11/05 02:14:18;;;;;;;0.95;0.50;;;;;;;21.36;36.63;96350.63;4494851;28;20041;-64
2023/11/05 02:16:32;;;;;;;0.93;0.57;;;;;;;21.34;36.88;96335.16;4495523;28;20150;-64
2023/11/05 02:18:42;;;;;;;1.02;0.57;;;;;;;21.38;36.62;96341.53;4497475;28;20137;-64
2023/11/05 02:20:53;;;;;;;0.75;0.60;;;;;;;21.37;36.49;96343.63;4498140;28;20487;-64
2023/11/05 02:23:07;;;;;;;1.67;0.60;;;;;;;21.36;36.77;96344.09;4498539;28;20173;-64
2023/11/05 02:25:20;;;;;;;1.13;0.80;;;;;;;21.34;36.67;96335.16;4494552;28;20042;-64
2023/11/05 02:27:30;;;;;;;1.52;1.00;;;;;;;21.36;36.70;96333.41;4505252;28;20111;-64
2023/11/05 02:29:41;;;;;;;1.63;0.80;;;;;;;21.34;37.02;96335.97;4496686;28;20578;-64
2023/11/05 02:31:52;;;;;;;1.60;0.80;;;;;;;21.36;36.93;96333.41;4498299;28;20226;-65
2023/11/05 02:34:03;;;;;;;1.25;0.50;;;;;;;21.37;36.77;96334.22;4494558;28;20034;-64
2023/11/05 02:36:13;;;;;;;1.40;0.70;;;;;;;21.34;36.95;96330.25;4501697;28;20030;-64
2023/11/05 02:38:24;;;;;;;0.98;0.55;;;;;;;21.38;36.65;96332.94;4496712;28;20042;-64
2023/11/05 02:40:34;;;;;;;0.63;0.38;;;;;;;21.35;36.70;96326.09;4499985;28;20037;-64
2023/11/05 02:42:44;;;;;;;1.02;0.70;;;;;;;21.32;36.95;96331.97;4488862;28;20062;-64
2023/11/05 02:44:55;;;;;;;1.20;0.50;;;;;;;21.34;36.98;96333.13;4496784;28;20045;-64
2023/11/05 02:47:05;;;;;;;1.08;0.40;;;;;;;21.35;36.76;96331.81;4496557;28;20046;-64
2023/11/05 02:49:16;;;;;;;0.63;0.30;;;;;;;21.32;37.19;96321.31;4495194;28;20026;-64
2023/11/05 02:51:26;;;;;;;1.58;0.50;;;;;;;21.32;36.93;96327.03;4496759;28;20046;-64
2023/11/05 02:53:37;;;;;;;0.70;0.50;;;;;;;21.36;37.39;96327.69;4495010;28;20030;-64
2023/11/05 02:55:48;;;;;;;0.98;0.60;;;;;;;21.34;37.34;96317.97;4496088;28;20191;-64
2023/11/05 02:57:58;;;;;;;1.25;0.60;;;;;;;21.34;37.34;96318.78;4496404;28;20034;-64
2023/11/05 03:00:13;;;;;;;0.80;0.47;;;;;;;21.35;37.21;96317.50;4496465;28;20081;-65
2023/11/05 03:02:25;;;;;;;1.08;0.50;;;;;;;21.37;37.13;96323.56;4511579;28;20028;-64
2023/11/05 03:04:36;;;;;;;0.73;0.40;;;;;;;21.36;37.27;96316.19;4494366;28;20104;-64
2023/11/05 03:06:50;;;;;;;0.73;0.43;;;;;;;21.35;37.56;96316.69;4497120;28;21247;-64
2023/11/05 03:09:00;;;;;;;0.60;0.30;;;;;;;21.33;37.54;96314.28;4495933;28;20030;-64
2023/11/05 03:11:11;;;;;;;0.82;0.52;;;;;;;21.36;37.60;96321.16;4498906;28;20476;-64
2023/11/05 03:13:21;;;;;;;0.80;0.40;;;;;;;21.35;37.68;96308.06;4498302;28;20110;-64
2023/11/05 03:15:32;;;;;;;1.10;0.30;;;;;;;21.33;37.79;96308.56;4498617;28;20072;-64
2023/11/05 03:17:42;;;;;;;1.23;0.40;;;;;;;21.35;37.92;96311.75;4498070;28;20038;-64
2023/11/05 03:19:53;;;;;;;0.50;0.40;;;;;;;21.35;38.05;96306.00;4498163;28;20033;-64
2023/11/05 03:22:05;;;;;;;1.00;0.50;;;;;;;21.31;37.91;96299.63;4496627;28;20089;-64
2023/11/05 03:24:16;;;;;;;1.27;0.40;;;;;;;21.35;37.99;96305.22;4497084;28;20034;-64
2023/11/05 03:26:26;;;;;;;1.20;0.50;;;;;;;21.25;38.08;96287.19;4497091;28;20509;-64
2023/11/05 03:28:36;;;;;;;1.00;0.38;;;;;;;21.36;38.28;96298.22;4500500;28;20037;-64
2023/11/05 03:30:47;;;;;;;0.93;0.45;;;;;;;21.32;38.42;96286.09;4499227;28;20438;-64
2023/11/05 03:32:57;;;;;;;1.05;0.50;;;;;;;21.33;37.99;96282.75;4498639;28;20069;-64
2023/11/05 03:35:09;;;;;;;0.57;0.40;;;;;;;21.34;38.62;96283.53;4499178;28;20558;-64
2023/11/05 03:37:20;;;;;;;0.28;0.20;;;;;;;21.33;38.49;96288.47;4497659;28;20034;-64
2023/11/05 03:39:30;;;;;;;0.75;0.35;;;;;;;21.33;38.52;96284.81;4498409;28;20034;-65
2023/11/05 03:41:40;;;;;;;0.80;0.30;;;;;;;21.32;39.06;96284.03;4498546;28;20041;-65
2023/11/05 03:43:51;;;;;;;0.30;0.30;;;;;;;21.32;39.16;96275.41;4499093;28;20022;-65
2023/11/05 03:46:02;;;;;;;0.30;0.20;;;;;;;21.37;38.94;96276.84;4497051;28;20048;-64
2023/11/05 03:48:13;;;;;;;0.57;0.30;;;;;;;21.32;39.49;96268.88;4498149;28;20042;-64
2023/11/05 03:50:23;;;;;;;0.13;0.13;;;;;;;21.34;38.99;96278.63;4497365;28;20018;-64
2023/11/05 03:52:34;;;;;;;0.10;0.10;;;;;;;21.33;39.21;96274.13;4498596;28;20038;-64
2023/11/05 03:54:45;;;;;;;0.10;0.10;;;;;;;21.33;39.50;96262.66;4498026;28;20065;-64
2023/11/05 03:56:57;;;;;;;0.20;0.13;;;;;;;21.27;39.44;96255.16;4497618;28;20046;-64
2023/11/05 03:59:08;;;;;;;0.30;0.10;;;;;;;21.33;39.58;96256.94;4498438;28;20038;-64
2023/11/05 04:01:19;;;;;;;0.20;0.10;;;;;;;21.31;39.73;96250.88;4499739;28;20026;-65
2023/11/05 04:03:33;;;;;;;0.15;0.10;;;;;;;21.31;39.90;96256.59;4498098;28;20034;-64
2023/11/05 04:05:44;;;;;;;0.35;0.17;;;;;;;21.36;39.56;96263.81;4496721;28;20914;-64
2023/11/05 04:07:55;;;;;;;0.10;0.10;;;;;;;21.36;39.50;96258.84;4499731;28;20104;-64
2023/11/05 04:10:05;;;;;;;0.10;0.10;;;;;;;21.35;39.38;96256.44;4497494;28;20078;-64
2023/11/05 04:12:17;;;;;;;0.40;0.20;;;;;;;21.35;39.04;96251.53;4498603;28;20443;-64
2023/11/05 04:14:27;;;;;;;0.10;0.10;;;;;;;21.33;39.43;96253.25;4498490;28;20113;-64
2023/11/05 04:16:38;;;;;;;0.10;0.10;;;;;;;21.31;39.48;96244.34;4499196;28;20088;-64
2023/11/05 04:18:49;;;;;;;0.10;0.10;;;;;;;21.33;39.73;96242.59;4498882;28;20113;-64
2023/11/05 04:20:59;;;;;;;0.25;0.10;;;;;;;21.34;40.01;96252.81;4495776;28;20634;-64
2023/11/05 04:23:10;;;;;;;0.13;0.13;;;;;;;21.35;39.73;96253.59;4497726;28;20065;-64
2023/11/05 04:25:21;;;;;;;0.47;0.10;;;;;;;21.34;39.81;96243.41;4499151;28;20157;-65
2023/11/05 04:27:31;;;;;;;0.10;0.10;;;;;;;21.22;39.85;96224.25;4495189;28;20177;-65
2023/11/05 04:29:42;;;;;;;0.20;0.10;;;;;;;21.32;39.80;96235.28;4500281;28;20079;-64
2023/11/05 04:31:52;;;;;;;0.20;0.20;;;;;;;21.30;40.05;96234.94;4498202;28;20039;-64
2023/11/05 04:34:04;;;;;;;0.35;0.10;;;;;;;21.30;40.00;96232.06;4501017;28;20073;-64
2023/11/05 04:36:15;;;;;;;0.52;0.28;;;;;;;21.30;39.94;96232.06;4497403;28;20120;-64
2023/11/05 04:38:25;;;;;;;0.20;0.20;;;;;;;21.16;40.45;96208.97;4497909;28;20521;-64
2023/11/05 04:40:35;;;;;;;0.20;0.20;;;;;;;21.32;40.23;96228.72;4498810;28;20069;-64
2023/11/05 04:42:46;;;;;;;0.17;0.17;;;;;;;21.33;40.12;96230.31;4497397;28;20052;-64
2023/11/05 04:44:58;;;;;;;0.40;0.20;;;;;;;21.33;40.45;96233.19;4499221;28;20038;-64
2023/11/05 04:47:08;;;;;;;0.10;0.10;;;;;;;21.32;40.27;96229.53;4497634;28;20973;-64
2023/11/05 04:49:19;;;;;;;0.10;0.10;;;;;;;21.31;40.37;96227.91;4495165;28;20145;-64
2023/11/05 04:51:29;;;;;;;0.40;0.30;;;;;;;21.34;40.60;96227.00;4498915;28;20026;-64
2023/11/05 04:53:40;;;;;;;0.75;0.20;;;;;;;21.32;39.90;96226.66;4498749;28;20106;-64
2023/11/05 04:55:50;;;;;;;0.40;0.20;;;;;;;21.32;39.95;96223.00;4497317;28;20030;-65
2023/11/05 04:58:00;;;;;;;0.13;0.13;;;;;;;21.30;40.06;96217.75;4496511;28;20030;-64
2023/11/05 05:00:12;;;;;;;0.17;0.10;;;;;;;21.32;39.96;96226.66;4498752;28;20041;-64
2023/11/05 05:02:23;;;;;;;0.15;0.10;;;;;;;21.34;40.23;96224.13;4497311;28;20042;-64
2023/11/05 05:04:34;;;;;;;0.05;0.05;;;;;;;21.32;40.40;96229.53;4505237;28;20773;-64
2023/11/05 05:06:44;;;;;;;0.08;0.08;;;;;;;21.34;40.19;96229.06;4496870;28;20053;-64
2023/11/05 05:08:55;;;;;;;0.13;0.10;;;;;;;21.30;39.88;96226.34;4498545;28;20029;-65
2023/11/05 05:11:05;;;;;;;0.10;0.10;;;;;;;21.30;40.49;96220.59;4497119;28;20045;-64
2023/11/05 05:13:16;;;;;;;0.50;0.20;;;;;;;21.32;40.51;96223.00;4496672;28;20042;-64
2023/11/05 05:15:26;;;;;;;0.03;0.03;;;;;;;21.35;40.20;96230.63;4498177;28;20053;-64
2023/11/05 05:17:37;;;;;;;0.90;0.10;;;;;;;21.31;40.20;96221.41;4498022;28;20029;-64
2023/11/05 05:19:47;;;;;;;0.00;0.00;;;;;;;21.34;40.43;96226.19;4498719;28;20034;-64
2023/11/05 05:21:58;;;;;;;0.63;0.30;;;;;;;21.33;40.39;96224.56;4501392;28;20113;-64
2023/11/05 05:24:08;;;;;;;0.60;0.50;;;;;;;21.31;40.64;96233.66;4496384;28;20096;-64
2023/11/05 05:26:19;;;;;;;0.45;0.30;;;;;;;21.33;40.42;96230.31;4497264;28;20112;-64
2023/11/05 05:28:29;;;;;;;1.73;1.08;;;;;;;21.32;40.13;96226.66;4498334;28;20045;-64
2023/11/05 05:30:40;;;;;;;2.10;0.90;;;;;;;21.32;40.61;96229.53;4497600;28;20029;-64
2023/11/05 05:32:50;;;;;;;3.80;1.83;;;;;;;21.32;40.72;96225.84;4504308;28;20490;-64
2023/11/05 05:35:01;;;;;;;4.38;2.90;;;;;;;21.29;40.45;96221.88;4497175;28;20124;-64
2023/11/05 05:37:13;;;;;;;1.75;1.25;;;;;;;21.28;40.43;96220.28;4500471;28;20044;-64
2023/11/05 05:39:24;;;;;;;0.75;0.50;;;;;;;21.27;40.54;96223.63;4500198;28;20800;-64
2023/11/05 05:41:34;;;;;;;0.38;0.38;;;;;;;21.27;40.63;96221.56;4497157;28;20038;-64
2023/11/05 05:43:44;;;;;;;0.20;0.20;;;;;;;21.32;40.62;96232.41;4496991;28;20038;-64
2023/11/05 05:45:55;;;;;;;0.20;0.20;;;;;;;21.28;40.38;96231.75;4498220;28;20451;-64
2023/11/05 05:48:06;;;;;;;0.50;0.50;;;;;;;21.31;40.45;96233.66;4497279;28;20039;-64
2023/11/05 05:50:16;;;;;;;0.50;0.50;;;;;;;21.31;40.76;96232.88;4506753;28;21238;-66
2023/11/05 05:52:27;;;;;;;0.50;0.40;;;;;;;21.28;40.32;96236.72;4496279;28;20030;-64
2023/11/05 05:54:37;;;;;;;1.20;0.60;;;;;;;21.31;40.51;96232.88;4496736;28;20031;-64
2023/11/05 05:56:48;;;;;;;0.68;0.50;;;;;;;21.29;40.57;96230.50;4495908;28;20038;-64
2023/11/05 05:58:59;;;;;;;0.70;0.60;;;;;;;21.29;40.79;96224.75;4498446;28;20026;-64
2023/11/05 06:01:09;;;;;;;0.60;0.50;;;;;;;21.30;40.46;96232.06;4497509;28;20122;-64
2023/11/05 06:03:20;;;;;;;0.30;0.30;;;;;;;21.30;40.57;96232.06;4494684;28;20054;-66
2023/11/05 06:05:31;;;;;;;0.52;0.43;;;;;;;21.31;40.32;96233.66;4495440;28;20030;-65
2023/11/05 06:07:41;;;;;;;0.80;0.60;;;;;;;21.31;40.67;96230.78;4497629;28;20419;-64
2023/11/05 06:09:52;;;;;;;0.40;0.40;;;;;;;21.31;40.38;96233.66;4498567;28;20053;-64
2023/11/05 06:12:02;;;;;;;0.70;0.40;;;;;;;21.33;40.45;96236.84;4497520;28;20038;-64
2023/11/05 06:14:13;;;;;;;1.73;0.90;;;;;;;21.30;40.72;96234.94;4496731;28;20037;-65
2023/11/05 06:16:24;;;;;;;1.58;0.70;;;;;;;21.28;40.70;96231.75;4497861;28;20038;-64
2023/11/05 06:18:34;;;;;;;0.85;0.40;;;;;;;21.28;40.71;96228.88;4502893;28;20034;-64
2023/11/05 06:20:44;;;;;;;0.63;0.50;;;;;;;21.31;40.55;96235.75;4500108;28;20034;-64
2023/11/05 06:22:56;;;;;;;0.80;0.50;;;;;;;21.31;40.28;96241.47;4497053;28;20045;-64
2023/11/05 06:25:09;;;;;;;0.70;0.30;;;;;;;21.27;40.38;96235.91;4505294;28;20041;-64
2023/11/05 06:27:20;;;;;;;0.22;0.20;;;;;;;21.30;40.44;96243.53;4497438;28;20052;-64
2023/11/05 06:29:30;;;;;;;0.30;0.20;;;;;;;21.31;40.56;96253.72;4495537;28;20418;-64
2023/11/05 06:31:40;;;;;;;0.30;0.22;;;;;;;21.29;40.20;96253.44;4498020;28;20310;-64
2023/11/05 06:33:51;;;;;;;0.20;0.20;;;;;;;21.29;40.48;96247.69;4496835;28;20050;-64
2023/11/05 06:36:01;;;;;;;0.38;0.20;;;;;;;21.32;40.15;96258.22;4505733;28;20148;-64
2023/11/05 06:38:12;;;;;;;0.17;0.15;;;;;;;21.29;40.10;96258.38;4495661;28;20030;-64
2023/11/05 06:40:22;;;;;;;0.40;0.20;;;;;;;21.30;40.36;96262.81;4497614;28;20042;-64
2023/11/05 06:42:33;;;;;;;0.10;0.10;;;;;;;21.31;40.24;96262.34;4496080;28;20041;-65
2023/11/05 06:44:44;;;;;;;0.20;0.10;;;;;;;21.31;40.20;96267.28;4497019;28;20479;-64
2023/11/05 06:46:54;;;;;;;0.10;0.10;;;;;;;21.32;39.93;96266.00;4500243;28;20050;-64
2023/11/05 06:49:05;;;;;;;0.30;0.20;;;;;;;21.32;39.85;96272.56;4498819;28;20034;-64
2023/11/05 06:51:15;;;;;;;0.20;0.10;;;;;;;21.29;40.36;96267.78;4496500;28;20610;-64
2023/11/05 06:53:26;;;;;;;0.10;0.10;;;;;;;21.19;40.22;96251.81;4509374;28;20541;-64
2023/11/05 06:55:36;;;;;;;0.22;0.20;;;;;;;21.31;40.19;96275.91;4497798;28;20030;-64
2023/11/05 06:57:46;;;;;;;0.47;0.20;;;;;;;21.20;39.81;96252.63;4500949;28;20034;-64
2023/11/05 06:59:57;;;;;;;0.10;0.10;;;;;;;21.28;39.74;96271.91;4498783;28;20053;-64
2023/11/05 07:02:11;;;;;;;0.10;0.10;;;;;;;21.30;39.60;96277.97;4499222;28;20384;-64
2023/11/05 07:04:21;;;;;;;0.75;0.20;;;;;;;21.27;39.94;96272.38;4501695;28;20590;-66
2023/11/05 07:06:32;;;;;;;0.10;0.10;;;;;;;21.26;40.01;96268.72;4499530;28;20042;-64
2023/11/05 07:08:42;;;;;;;0.35;0.30;;;;;;;21.30;39.94;96266.50;4500427;28;20073;-64
2023/11/05 07:10:53;;;;;;;0.32;0.20;;;;;;;21.25;40.02;96266.34;4497374;28;20081;-64
2023/11/05 07:13:03;;;;;;;0.20;0.10;;;;;;;21.30;39.83;96272.22;4499593;28;20042;-64
2023/11/05 07:15:14;;;;;;;0.10;0.10;;;;;;;21.28;39.72;96265.38;4497271;28;20514;-64
2023/11/05 07:17:24;;;;;;;0.20;0.10;;;;;;;21.32;39.71;96284.03;4499896;28;20120;-64
2023/11/05 07:19:34;;;;;;;0.38;0.10;;;;;;;21.30;39.36;96289.44;4499579;28;20042;-64
2023/11/05 07:21:45;;;;;;;0.38;0.10;;;;;;;21.28;39.42;96286.22;4500057;28;20034;-64
2023/11/05 07:23:56;;;;;;;0.28;0.20;;;;;;;21.30;39.43;96283.69;4498700;28;20073;-64
2023/11/05 07:26:06;;;;;;;0.20;0.20;;;;;;;21.28;39.46;96282.59;4498852;28;20046;-64
2023/11/05 07:28:17;;;;;;;0.20;0.20;;;;;;;21.30;39.65;96292.31;4497037;28;20035;-64
2023/11/05 07:30:27;;;;;;;0.40;0.40;;;;;;;21.30;39.76;96298.03;4498232;28;20039;-64
2023/11/05 07:32:38;;;;;;;0.60;0.60;;;;;;;21.31;39.49;96304.56;4499441;28;20026;-64
2023/11/05 07:34:49;;;;;;;0.35;0.35;;;;;;;21.31;39.54;96301.72;4499964;28;20045;-64
2023/11/05 07:36:59;;;;;;;0.20;0.20;;;;;;;21.29;39.79;96302.19;4496823;28;20029;-64
2023/11/05 07:39:09;;;;;;;0.73;0.20;;;;;;;21.30;39.50;96303.78;4498547;28;20041;-64
2023/11/05 07:41:20;;;;;;;0.32;0.30;;;;;;;21.27;39.75;96298.19;4500368;28;20048;-64
2023/11/05 07:43:30;;;;;;;0.40;0.40;;;;;;;21.30;39.62;96305.81;4498626;28;20032;-64
2023/11/05 07:45:42;;;;;;;0.30;0.30;;;;;;;21.30;39.88;96309.50;4506881;28;20046;-64
2023/11/05 07:47:52;;;;;;;0.38;0.38;;;;;;;21.29;39.22;96310.78;4499669;28;20042;-64
2023/11/05 07:50:03;;;;;;;1.40;1.17;;;;;;;21.29;39.70;96305.06;4499170;28;20042;-64
2023/11/05 07:52:14;;;;;;;2.50;2.10;;;;;;;21.27;39.23;96304.72;4499420;28;20053;-64
2023/11/05 07:54:24;;;;;;;4.82;3.80;;;;;;;21.28;39.61;96317.78;4497321;28;20022;-64
2023/11/05 07:56:34;;;;;;;3.63;3.20;;;;;;;21.29;39.39;96309.97;4509049;28;20042;-64
2023/11/05 07:58:45;;;;;;;0.95;0.90;;;;;;;21.27;39.30;96312.53;4498339;28;20092;-64
2023/11/05 08:00:56;;;;;;;0.45;0.40;;;;;;;21.30;40.04;96315.25;4501405;28;20026;-64
2023/11/05 08:03:07;;;;;;;0.30;0.20;;;;;;;21.28;39.70;96312.03;4497220;28;20577;-64
2023/11/05 08:05:18;;;;;;;0.22;0.15;;;;;;;21.29;39.13;96322.25;4506915;28;20029;-64
2023/11/05 08:07:29;;;;;;;0.17;0.17;;;;;;;21.31;39.35;96324.66;4497272;28;20488;-64
2023/11/05 08:09:39;;;;;;;0.30;0.30;;;;;;;21.25;39.21;96315.09;4498871;28;20527;-64
2023/11/05 08:11:50;;;;;;;0.10;0.10;;;;;;;21.28;39.40;96314.13;4498602;28;20030;-64
2023/11/05 08:14:01;;;;;;;0.10;0.10;;;;;;;21.30;39.74;96328.78;4499455;28;20030;-64
2023/11/05 08:16:11;;;;;;;0.30;0.30;;;;;;;21.23;39.26;96326.22;4498352;28;20038;-64
2023/11/05 08:18:22;;;;;;;0.20;0.20;;;;;;;21.27;39.22;96329.72;4498497;28;20046;-66
2023/11/05 08:20:33;;;;;;;0.20;0.20;;;;;;;21.28;39.71;96335.00;4506704;28;20056;-64
2023/11/05 08:22:43;;;;;;;0.20;0.20;;;;;;;21.29;39.94;96338.66;4497546;28;20410;-64
2023/11/05 08:24:54;;;;;;;0.30;0.20;;;;;;;21.28;39.60;96335.00;4498122;28;20077;-63
2023/11/05 08:27:05;;;;;;;0.20;0.20;;;;;;;21.30;39.72;96345.97;4497606;28;20410;-64
2023/11/05 08:29:15;;;;;;;0.20;0.10;;;;;;;21.26;39.99;96337.56;4497320;28;20030;-64
2023/11/05 08:31:25;;;;;;;0.10;0.10;;;;;;;21.24;40.48;96334.34;4497733;28;20034;-64
2023/11/05 08:33:38;;;;;;;0.08;0.00;;;;;;;21.30;40.67;96345.97;4496577;28;20041;-64
2023/11/05 08:35:50;;;;;;;0.00;0.00;;;;;;;21.30;40.20;96352.53;4498373;28;20042;-64
2023/11/05 08:38:01;;;;;;;0.10;0.10;;;;;;;21.28;40.46;96357.94;4498096;28;20026;-64
2023/11/05 08:40:15;;;;;;;0.10;0.10;;;;;;;21.31;40.67;96364.81;4487905;28;20038;-64
2023/11/05 08:42:25;;;;;;;0.65;0.13;;;;;;;21.27;40.41;96352.66;4498568;28;20045;-64
2023/11/05 08:44:36;;;;;;;0.20;0.20;;;;;;;21.17;40.64;96343.25;4503656;28;20479;-64
2023/11/05 08:46:46;;;;;;;0.40;0.20;;;;;;;21.31;40.77;96373.41;4496959;28;20092;-64
2023/11/05 08:48:57;;;;;;;0.30;0.20;;;;;;;21.27;40.65;96367.00;4498935;28;20406;-64
2023/11/05 08:51:07;;;;;;;0.20;0.20;;;;;;;21.28;40.97;96372.25;4497110;28;20029;-64
2023/11/05 08:53:19;;;;;;;0.10;0.10;;;;;;;21.30;40.71;96374.66;4498437;28;20117;-64
2023/11/05 08:55:29;;;;;;;0.30;0.20;;;;;;;21.28;40.77;96375.13;4498010;28;20589;-64
2023/11/05 08:57:39;;;;;;;0.20;0.20;;;;;;;21.28;41.36;96380.88;4498608;28;20133;-64
2023/11/05 08:59:50;;;;;;;0.50;0.20;;;;;;;21.23;41.30;96381.47;4498997;28;20034;-68
2023/11/05 09:02:00;;;;;;;0.20;0.20;;;;;;;21.24;41.52;96382.28;4495303;28;20459;-64
2023/11/05 09:04:11;;;;;;;0.15;0.10;;;;;;;21.27;41.36;96392.81;4495630;28;20070;-64
2023/11/05 09:06:21;;;;;;;0.10;0.10;;;;;;;21.27;41.69;96393.63;4484576;28;20039;-64
2023/11/05 09:08:31;;;;;;;0.65;0.10;;;;;;;21.28;41.19;96392.34;4496971;28;20038;-64
2023/11/05 09:10:42;;;;;;;0.20;0.20;;;;;;;21.27;41.50;96393.63;4497343;28;20048;-64
2023/11/05 09:12:53;;;;;;;0.10;0.10;;;;;;;21.30;41.46;96407.00;4498329;28;20022;-64
2023/11/05 09:15:04;;;;;;;0.10;0.10;;;;;;;21.29;41.87;96405.44;4496605;28;20038;-64
2023/11/05 09:17:15;;;;;;;0.17;0.10;;;;;;;21.26;42.07;96402.69;4497045;28;20034;-64
2023/11/05 09:19:25;;;;;;;0.20;0.20;;;;;;;21.29;42.06;96402.56;4496946;28;20487;-64
2023/11/05 09:21:41;;;;;;;0.30;0.20;;;;;;;21.29;42.38;96408.28;4499268;28;20491;-64
2023/11/05 09:23:51;;;;;;;0.10;0.10;;;;;;;21.28;42.13;96412.41;4497433;28;20049;-64
2023/11/05 09:26:02;;;;;;;0.13;0.13;;;;;;;21.29;42.22;96419.78;4498331;28;20073;-64
2023/11/05 09:28:13;;;;;;;0.20;0.20;;;;;;;21.29;42.39;96424.69;4497022;28;21191;-64
2023/11/05 09:30:23;;;;;;;0.10;0.10;;;;;;;21.25;42.69;96424.84;4497534;28;20034;-64
2023/11/05 09:32:34;;;;;;;0.15;0.15;;;;;;;21.28;42.41;96423.88;4497296;28;20495;-64
2023/11/05 09:34:44;;;;;;;0.30;0.30;;;;;;;21.30;42.59;96434.88;4497850;28;21135;-64
2023/11/05 09:36:55;;;;;;;0.35;0.25;;;;;;;21.19;42.76;96421.00;4495595;28;20038;-64
2023/11/05 09:39:07;;;;;;;0.20;0.20;;;;;;;21.18;42.58;96425.16;4498477;28;20042;-64
2023/11/05 09:41:19;;;;;;;0.22;0.20;;;;;;;21.31;42.46;96450.84;4497823;28;20038;-64
2023/11/05 09:43:29;;;;;;;0.20;0.20;;;;;;;21.29;42.54;96448.44;4496898;28;20018;-64
2023/11/05 09:45:41;;;;;;;0.32;0.20;;;;;;;21.31;42.61;96457.34;4500173;28;20038;-64
2023/11/05 09:47:51;;;;;;;0.20;0.20;;;;;;;21.26;42.59;96454.31;4496910;28;20794;-64
2023/11/05 09:50:03;;;;;;;0.10;0.10;;;;;;;21.29;42.04;96465.66;4495553;28;20018;-64
2023/11/05 09:52:13;;;;;;;0.20;0.20;;;;;;;21.28;42.25;96469.78;4495141;28;20044;-64
2023/11/05 09:54:23;;;;;;;0.10;0.10;;;;;;;21.30;42.06;96472.16;4496521;28;20030;-64
2023/11/05 09:56:34;;;;;;;0.20;0.20;;;;;;;21.26;42.00;96480.94;4498170;28;20022;-64
2023/11/05 09:58:45;;;;;;;0.20;0.20;;;;;;;21.30;41.88;96487.31;4497037;28;20066;-64
2023/11/05 10:00:55;;;;;;;0.20;0.20;;;;;;;21.28;41.69;96486.97;4498274;28;20116;-64
2023/11/05 10:03:08;;;;;;;0.20;0.20;;;;;;;21.30;41.82;96495.91;4495318;28;20483;-64
2023/11/05 10:05:18;;;;;;;0.45;0.45;;;;;;;21.30;41.40;96497.97;4496655;28;20101;-64
2023/11/05 10:07:29;;;;;;;0.60;0.60;;;;;;;21.29;41.40;96494.34;4497734;28;20061;-64
2023/11/05 10:09:40;;;;;;;0.30;0.30;;;;;;;21.30;41.26;96507.41;4496331;28;20053;-64
2023/11/05 10:11:51;;;;;;;0.20;0.20;;;;;;;21.28;41.12;96503.41;4496998;28;20062;-64
2023/11/05 10:14:02;;;;;;;0.43;0.20;;;;;;;21.29;41.27;96502.94;4495296;28;20048;-64
2023/11/05 10:16:13;;;;;;;0.38;0.30;;;;;;;21.28;41.12;96506.28;4497261;28;20050;-64